Погода Вирищена 2 недели

Гродненская область, Белоруссия

19 - 31 июля
  • 19июля
    Сегодня
    +13°
    +24°
    Практически безоблачно
    ВремяПогодаТемператураВлажностьДавлениеВетер, м/сВероятность осадков
    00:00Ясно и безоблачно+18°C74 %751 мм3.4 м/с2 %
    03:00Ясно и безоблачно+16°C77 %751 мм3.9 м/с2 %
    06:00Облачно с прояснениями+14°C86 %751 мм3.7 м/с2 %
    09:00Небольшая облачность+18°C75 %751 мм4.2 м/с2 %
    12:00Ясно и безоблачно+21°C64 %751 мм3.5 м/с2 %
    15:00Практически безоблачно+23°C56 %750 мм3.9 м/с3 %
    18:00Ясно и безоблачно+24°C51 %749 мм4.0 м/с2 %
    21:00Ясно и безоблачно+21°C70 %748 мм1.9 м/с2 %
  • 20июля
    Суббота
    +14°
    +24°
    Облачно с прояснениями
    ВремяПогодаТемператураВлажностьДавлениеВетер, м/сВероятность осадков
    00:00Ясно и безоблачно+17°C66 %748 мм3.3 м/с2 %
    03:00Ясно и безоблачно+14°C78 %748 мм2.9 м/с2 %
    06:00Ясно и безоблачно+13°C84 %748 мм2.9 м/с2 %
    09:00Ясно и безоблачно+18°C78 %748 мм2.7 м/с2 %
    12:00Небольшая облачность+21°C63 %747 мм2.1 м/с4 %
    15:00Облачно с прояснениями+23°C55 %747 мм2.6 м/с5 %
    18:00Облачно с прояснениями+23°C52 %746 мм2.7 м/с2 %
    21:00Ясно и безоблачно+21°C73 %745 мм1.8 м/с2 %
  • 21июля
    Воскресенье
    +15°
    +25°
    Небольшая облачность
    ВремяПогодаТемператураВлажностьДавлениеВетер, м/сВероятность осадков
    00:00Практически безоблачно+17°C80 %745 мм1.8 м/с2 %
    03:00Ясно и безоблачно+15°C84 %745 мм1.9 м/с2 %
    06:00Практически безоблачно+15°C84 %744 мм1.8 м/с2 %
    09:00Ясно и безоблачно+20°C70 %745 мм0.3 м/с2 %
    12:00Практически безоблачно+24°C50 %744 мм2.2 м/с30 %
    15:00Небольшая облачность+25°C44 %744 мм2.8 м/с38 %
    18:00Практически безоблачно+25°C46 %743 мм2.4 м/с23 %
    21:00Ясно и безоблачно+22°C69 %743 мм2.0 м/с7 %
  • 22июля
    Понедельник
    +14°
    +27°
    Ясно и безоблачно
    ВремяПогодаТемператураВлажностьДавлениеВетер, м/сВероятность осадков
    00:00Ясно и безоблачно+19°C68 %743 мм0.7 м/с2 %
    03:00Ясно и безоблачно+17°C76 %744 мм0.8 м/с2 %
    06:00Практически безоблачно+16°C82 %743 мм0.8 м/с2 %
    09:00Ясно и безоблачно+21°C74 %744 мм1.2 м/с2 %
    12:00Практически безоблачно+25°C49 %744 мм0.5 м/с16 %
    15:00Ясно и безоблачно+26°C46 %744 мм0.9 м/с29 %
    18:00Ясно и безоблачно+26°C46 %743 мм1.0 м/с17 %
    21:00Ясно и безоблачно+23°C60 %744 мм0.5 м/с9 %
Мы используем cookies
Соглашаюсь